Time;durP1;ratioP1;P1;durP2;ratioP2;P2;SDS_P1;SDS_P2;PMS_P1;PMS_P2;Temp;Humidity;BMP_temperature;BMP_pressure;BME280_temperature;BME280_humidity;BME280_pressure;Samples;Min_cycle;Max_cycle;Signal;HPM_P1;HPM_P2
2022/12/29 00:01:32;;;;;;;3.77;2.20;;;11.90;56.80;;;;;;5066478;28;20531;-90
2022/12/29 00:03:59;;;;;;;3.70;2.50;;;12.10;56.30;;;;;;5056305;28;20963;-88
2022/12/29 00:06:26;;;;;;;2.70;2.17;;;12.10;56.50;;;;;;5051201;27;20458;-88
2022/12/29 00:08:53;;;;;;;2.83;2.57;;;12.00;55.80;;;;;;5053086;28;20533;-88
2022/12/29 00:11:23;;;;;;;3.77;2.30;;;12.10;56.20;;;;;;5065228;27;20909;-87
2022/12/29 00:16:36;;;;;;;4.27;2.37;;;12.00;55.60;;;;;;5053173;28;21010;-88
2022/12/29 00:19:04;;;;;;;3.27;2.00;;;11.90;56.60;;;;;;5085391;28;20447;-87
2022/12/29 00:35:30;;;;;;;2.50;1.80;;;12.10;57.30;;;;;;5067102;27;20998;-88
2022/12/29 00:46:16;;;;;;;2.50;2.17;;;12.50;56.40;;;;;;5042744;28;20454;-88
2022/12/29 00:51:27;;;;;;;4.17;2.47;;;12.70;56.00;;;;;;5074066;28;20431;-87
2022/12/29 00:53:54;;;;;;;2.03;1.60;;;12.60;55.70;;;;;;5068895;28;20554;-88
2022/12/29 00:56:21;;;;;;;4.97;2.17;;;12.60;56.00;;;;;;5068002;28;20999;-88
2022/12/29 00:58:49;;;;;;;3.00;2.70;;;12.70;56.30;;;;;;5054631;28;20538;-90
2022/12/29 01:01:16;;;;;;;4.60;2.10;;;12.80;55.90;;;;;;5062276;28;20438;-87
2022/12/29 01:03:44;;;;;;;2.93;1.70;;;12.50;55.80;;;;;;5052625;28;20485;-88
2022/12/29 01:06:13;;;;;;;3.47;2.10;;;12.40;56.50;;;;;;5049200;28;20926;-86
2022/12/29 01:08:40;;;;;;;3.70;2.60;;;12.60;56.50;;;;;;5080489;28;20554;-87
2022/12/29 01:11:07;;;;;;;4.13;1.97;;;12.80;56.30;;;;;;5068053;28;20458;-88
2022/12/29 01:13:35;;;;;;;2.40;1.67;;;12.90;56.10;;;;;;5065967;28;20967;-88
2022/12/29 01:16:04;;;;;;;2.43;2.17;;;13.00;56.20;;;;;;5052059;28;20462;-90
2022/12/29 01:18:32;;;;;;;2.30;2.10;;;12.90;56.40;;;;;;5057593;28;20569;-88
2022/12/29 01:21:00;;;;;;;3.10;2.80;;;13.00;56.30;;;;;;5052873;28;20439;-88
2022/12/29 01:23:28;;;;;;;2.30;1.83;;;13.10;56.20;;;;;;5059572;28;20998;-88
2022/12/29 01:25:55;;;;;;;3.17;1.80;;;13.10;56.30;;;;;;5050819;28;20468;-90
2022/12/29 01:28:22;;;;;;;3.23;2.27;;;12.90;56.50;;;;;;5050813;28;20523;-87
2022/12/29 01:30:49;;;;;;;2.17;1.97;;;13.00;57.20;;;;;;5069945;28;20442;-88
2022/12/29 01:33:17;;;;;;;4.77;1.73;;;13.00;57.20;;;;;;5068428;28;20551;-88
2022/12/29 01:35:44;;;;;;;3.83;2.20;;;13.10;57.10;;;;;;5102033;28;20470;-87
2022/12/29 01:38:11;;;;;;;5.43;2.97;;;13.30;56.80;;;;;;5050222;28;21278;-86
2022/12/29 01:40:45;;;;;;;5.80;3.10;;;13.30;57.00;;;;;;5052364;28;22649;-88
2022/12/29 01:43:13;;;;;;;6.53;3.43;;;13.40;56.70;;;;;;5060551;28;20826;-86
2022/12/29 01:45:45;;;;;;;6.87;4.10;;;13.40;57.20;;;;;;5067226;28;20470;-88
2022/12/29 01:48:13;;;;;;;7.87;4.37;;;13.60;57.00;;;;;;5066391;28;20466;-87
2022/12/29 01:50:46;;;;;;;10.20;5.13;;;13.70;56.90;;;;;;5050478;28;20442;-88
2022/12/29 01:53:18;;;;;;;8.57;4.67;;;13.90;56.70;;;;;;5071843;28;20454;-88
2022/12/29 01:55:49;;;;;;;6.40;3.97;;;13.70;57.40;;;;;;5053542;28;20519;-89
2022/12/29 01:58:20;;;;;;;5.77;2.00;;;13.40;57.80;;;;;;5066571;28;20877;-88
2022/12/29 02:00:47;;;;;;;8.23;2.57;;;13.40;58.20;;;;;;5058816;28;20881;-88
2022/12/29 02:03:16;;;;;;;15.80;7.97;;;13.40;58.40;;;;;;5045872;28;21055;-89
2022/12/29 02:05:52;;;;;;;4.90;3.63;;;13.40;58.50;;;;;;5067265;28;20515;-86
2022/12/29 02:08:21;;;;;;;3.27;2.37;;;13.30;58.90;;;;;;5048501;28;20529;-88
2022/12/29 02:10:48;;;;;;;4.10;1.90;;;13.00;59.90;;;;;;5084201;28;20446;-88
2022/12/29 02:13:17;;;;;;;3.30;3.00;;;12.80;61.20;;;;;;5066248;28;20439;-88
2022/12/29 02:15:57;;;;;;;9.07;2.33;;;13.10;60.90;;;;;;5070618;28;20506;-88
2022/12/29 02:18:37;;;;;;;2.00;1.83;;;13.00;60.50;;;;;;5076040;28;20458;-89
2022/12/29 02:21:56;;;;;;;2.93;1.80;;;13.20;60.70;;;;;;5061597;28;20443;-90
2022/12/29 02:25:05;;;;;;;3.27;2.33;;;13.20;60.80;;;;;;5075133;28;20458;-88
2022/12/29 02:27:47;;;;;;;3.67;2.20;;;13.20;60.70;;;;;;5053845;27;21085;-91
2022/12/29 02:30:30;;;;;;;6.07;2.40;;;13.20;61.00;;;;;;5064046;28;20449;-88
2022/12/29 02:33:04;;;;;;;5.27;2.27;;;13.20;61.90;;;;;;5066706;28;20471;-92
2022/12/29 02:35:38;;;;;;;2.43;1.97;;;13.30;62.00;;;;;;5087210;27;20472;-91
2022/12/29 02:38:15;;;;;;;5.13;1.90;;;13.10;62.70;;;;;;5101081;28;20992;-87
2022/12/29 02:40:49;;;;;;;3.00;2.70;;;12.90;64.00;;;;;;5081170;27;20469;-88
2022/12/29 02:43:26;;;;;;;4.23;2.13;;;13.00;63.60;;;;;;5068604;28;20451;-88
2022/12/29 02:45:58;;;;;;;2.80;2.17;;;13.20;62.70;;;;;;5101861;27;20833;-87
2022/12/29 02:48:30;;;;;;;2.00;1.80;;;13.10;63.60;;;;;;5084900;28;21031;-87
2022/12/29 02:51:02;;;;;;;2.30;2.10;;;13.30;63.50;;;;;;5063286;28;20438;-88
2022/12/29 02:56:19;;;;;;;6.23;2.00;;;13.20;63.90;;;;;;5059738;28;20458;-88
2022/12/29 02:58:47;;;;;;;3.30;2.60;;;12.90;64.70;;;;;;5053982;28;20478;-88
2022/12/29 03:01:26;;;;;;;3.00;1.87;;;12.80;65.60;;;;;;5084908;28;20454;-89
2022/12/29 03:04:09;;;;;;;2.03;1.83;;;13.20;64.60;;;;;;5075957;28;20452;-87
2022/12/29 03:06:51;;;;;;;2.00;1.80;;;13.00;64.30;;;;;;5058024;27;20469;-90
2022/12/29 03:09:27;;;;;;;2.70;2.13;;;13.00;65.40;;;;;;5049138;28;20465;-91
2022/12/29 03:12:09;;;;;;;2.13;1.83;;;13.20;64.60;;;;;;5088732;28;20450;-87
2022/12/29 03:17:46;;;;;;;2.70;1.60;;;12.90;66.10;;;;;;5085523;28;20512;-89
2022/12/29 03:20:18;;;;;;;3.77;2.40;;;13.00;66.00;;;;;;5062910;28;20457;-90
2022/12/29 03:22:50;;;;;;;2.33;1.70;;;13.20;65.70;;;;;;5078151;28;20455;-87
2022/12/29 03:25:25;;;;;;;5.23;1.77;;;13.20;66.00;;;;;;5047451;28;20869;-89
2022/12/29 03:27:56;;;;;;;3.10;1.93;;;13.00;66.80;;;;;;5072012;28;20482;-88
2022/12/29 03:30:25;;;;;;;4.47;2.10;;;12.90;66.90;;;;;;5047820;28;20508;-88
2022/12/29 03:32:56;;;;;;;3.53;1.60;;;13.00;66.80;;;;;;5082449;28;20947;-88
2022/12/29 03:35:29;;;;;;;2.40;1.73;;;13.20;66.60;;;;;;5041781;28;20489;-87
2022/12/29 03:38:03;;;;;;;3.03;1.60;;;13.40;66.00;;;;;;5088929;28;20555;-91
2022/12/29 03:40:33;;;;;;;3.50;1.73;;;13.40;65.70;;;;;;5081543;28;20450;-87
2022/12/29 03:43:02;;;;;;;5.43;1.80;;;13.40;65.70;;;;;;5053225;28;20443;-89
2022/12/29 03:45:31;;;;;;;3.97;2.07;;;13.20;66.40;;;;;;5057238;28;21153;-87
2022/12/29 03:47:59;;;;;;;1.97;1.63;;;13.30;66.00;;;;;;5056499;28;20439;-90
2022/12/29 03:50:27;;;;;;;2.27;2.07;;;13.30;65.80;;;;;;5084815;28;20446;-87
2022/12/29 03:52:54;;;;;;;5.13;1.77;;;13.40;65.70;;;;;;5069572;28;20660;-88
2022/12/29 03:55:21;;;;;;;1.93;1.83;;;13.40;65.60;;;;;;5068226;28;20443;-88
2022/12/29 03:57:47;;;;;;;4.73;1.63;;;13.70;64.70;;;;;;5076558;27;20466;-88
2022/12/29 04:00:20;;;;;;;2.50;1.87;;;13.70;64.40;;;;;;5081455;28;20450;-92
2022/12/29 04:02:50;;;;;;;1.57;1.40;;;13.80;64.00;;;;;;5086339;28;20443;-89
2022/12/29 04:05:25;;;;;;;1.90;1.70;;;13.70;64.10;;;;;;5068981;28;20443;-88
2022/12/29 04:07:54;;;;;;;4.37;2.67;;;13.60;63.70;;;;;;5064060;28;21027;-89
2022/12/29 04:10:21;;;;;;;1.73;1.63;;;13.70;64.10;;;;;;5066930;28;20524;-89
2022/12/29 04:12:52;;;;;;;3.20;2.10;;;13.60;64.10;;;;;;5069740;27;20884;-89
2022/12/29 04:15:18;;;;;;;2.30;1.90;;;13.60;63.70;;;;;;5083264;28;20446;-88
2022/12/29 04:17:46;;;;;;;2.70;1.67;;;13.30;64.70;;;;;;5089163;27;20964;-88
2022/12/29 04:23:10;;;;;;;3.40;2.10;;;13.30;65.00;;;;;;5052797;28;20439;-88
2022/12/29 04:25:38;;;;;;;5.13;2.33;;;13.30;64.80;;;;;;5054623;28;20463;-88
2022/12/29 04:28:08;;;;;;;3.03;2.13;;;13.40;64.80;;;;;;5088966;28;20438;-88
2022/12/29 04:30:54;;;;;;;5.70;2.13;;;13.30;65.00;;;;;;5070222;28;20451;-90
2022/12/29 04:33:33;;;;;;;2.10;1.80;;;13.40;64.50;;;;;;5057270;27;20442;-87
2022/12/29 04:36:00;;;;;;;3.00;1.90;;;13.50;64.20;;;;;;5056267;28;20520;-88
2022/12/29 04:38:29;;;;;;;3.93;2.30;;;13.60;63.80;;;;;;5054715;28;21054;-87
2022/12/29 04:40:59;;;;;;;3.20;2.63;;;13.50;63.40;;;;;;5053826;28;20447;-87
2022/12/29 04:43:26;;;;;;;11.30;4.03;;;13.50;63.10;;;;;;5057213;28;20443;-86
2022/12/29 04:46:17;;;;;;;3.57;2.80;;;13.40;63.20;;;;;;5043981;28;20458;-88
2022/12/29 04:48:50;;;;;;;3.20;2.57;;;13.60;63.00;;;;;;5060648;27;20963;-88
2022/12/29 04:51:31;;;;;;;4.10;1.60;;;13.60;63.00;;;;;;5087513;28;20462;-88
2022/12/29 04:53:59;;;;;;;2.50;1.90;;;13.80;62.10;;;;;;5078490;28;20448;-88
2022/12/29 04:56:37;;;;;;;2.03;1.73;;;13.80;61.70;;;;;;5069632;28;20463;-88
2022/12/29 04:59:05;;;;;;;2.17;1.97;;;13.70;62.20;;;;;;5082424;28;20557;-88
2022/12/29 05:01:32;;;;;;;1.93;1.83;;;13.60;62.90;;;;;;5076545;28;20442;-88
2022/12/29 05:03:59;;;;;;;5.10;2.00;;;13.70;62.10;;;;;;5054021;28;20458;-87
2022/12/29 05:06:26;;;;;;;3.50;2.40;;;13.50;63.10;;;;;;5069956;28;20467;-88
2022/12/29 05:08:54;;;;;;;2.03;1.93;;;13.70;62.80;;;;;;5054628;28;20444;-88
2022/12/29 05:11:22;;;;;;;3.97;2.53;;;13.70;61.90;;;;;;5065789;28;20541;-88
2022/12/29 05:13:51;;;;;;;1.80;1.70;;;13.70;62.20;;;;;;5078884;28;20482;-90
2022/12/29 05:16:18;;;;;;;3.83;1.57;;;13.70;61.50;;;;;;5054909;28;20569;-90
2022/12/29 05:18:45;;;;;;;1.90;1.70;;;13.60;62.00;;;;;;5052314;28;20827;-89
2022/12/29 05:21:12;;;;;;;2.27;1.70;;;13.70;62.30;;;;;;5083890;28;20459;-88
2022/12/29 05:23:41;;;;;;;1.80;1.60;;;13.40;62.40;;;;;;5063962;28;20455;-88
2022/12/29 05:26:08;;;;;;;1.97;1.77;;;13.60;62.40;;;;;;5102943;28;20881;-88
2022/12/29 05:28:55;;;;;;;3.47;1.83;;;13.60;62.10;;;;;;5087099;28;20447;-88
2022/12/29 05:31:23;;;;;;;1.97;1.60;;;13.50;62.50;;;;;;5057034;28;20542;-88
2022/12/29 05:33:50;;;;;;;2.13;1.40;;;13.60;62.40;;;;;;5052795;28;20442;-88
2022/12/29 05:36:18;;;;;;;1.90;1.60;;;13.40;63.00;;;;;;5050066;28;20502;-89
2022/12/29 05:38:49;;;;;;;2.17;1.43;;;13.60;63.10;;;;;;5060326;28;20585;-88
2022/12/29 05:41:16;;;;;;;1.50;1.40;;;13.70;61.70;;;;;;5057024;28;20490;-88
2022/12/29 05:44:05;;;;;;;2.90;1.80;;;13.90;61.60;;;;;;5068149;28;20461;-88
2022/12/29 05:47:01;;;;;;;3.60;1.30;;;14.00;61.10;;;;;;5086723;28;20471;-88
2022/12/29 05:49:40;;;;;;;1.80;1.50;;;13.90;60.50;;;;;;5083907;28;21006;-90
2022/12/29 05:52:20;;;;;;;1.67;1.40;;;13.90;60.40;;;;;;5053723;28;20975;-89
2022/12/29 05:54:47;;;;;;;2.20;1.30;;;13.90;60.60;;;;;;5065635;28;21023;-88
2022/12/29 05:57:17;;;;;;;1.73;1.30;;;13.80;60.90;;;;;;5046162;28;20543;-87
2022/12/29 05:59:50;;;;;;;1.53;1.40;;;13.60;61.10;;;;;;5072488;28;21065;-90
2022/12/29 06:02:17;;;;;;;3.07;1.53;;;13.40;62.00;;;;;;5065444;28;20815;-87
2022/12/29 06:04:44;;;;;;;3.97;1.67;;;13.50;62.60;;;;;;5087569;27;21025;-87
2022/12/29 06:07:11;;;;;;;1.30;1.20;;;13.70;61.30;;;;;;5052403;28;20540;-88
2022/12/29 06:09:44;;;;;;;1.37;1.27;;;13.80;60.80;;;;;;5055149;28;20503;-88
2022/12/29 06:12:11;;;;;;;1.37;1.23;;;13.90;61.10;;;;;;5057007;28;20503;-90
2022/12/29 06:14:40;;;;;;;2.13;1.27;;;13.90;60.60;;;;;;5055780;27;20438;-88
2022/12/29 06:17:09;;;;;;;1.73;1.30;;;13.80;60.40;;;;;;5089831;28;20904;-90
2022/12/29 06:19:36;;;;;;;2.47;1.40;;;13.90;60.60;;;;;;5049512;27;20908;-88
2022/12/29 06:22:04;;;;;;;3.30;2.17;;;13.90;60.40;;;;;;5069074;28;20877;-89
2022/12/29 06:24:34;;;;;;;3.30;2.43;;;14.00;60.30;;;;;;5043087;28;20469;-89
2022/12/29 06:27:01;;;;;;;1.70;1.40;;;14.00;59.50;;;;;;5086337;28;20473;-88
2022/12/29 06:29:28;;;;;;;2.80;1.53;;;14.10;59.40;;;;;;5053440;28;20887;-88
2022/12/29 06:31:58;;;;;;;3.33;1.47;;;14.10;58.90;;;;;;5071169;28;20447;-89
2022/12/29 06:34:26;;;;;;;2.43;1.30;;;14.20;58.90;;;;;;5066757;28;20451;-89
2022/12/29 06:36:54;;;;;;;7.10;1.80;;;14.10;58.70;;;;;;5086225;27;20465;-89
2022/12/29 06:39:21;;;;;;;2.47;1.67;;;14.00;58.90;;;;;;5085999;28;20503;-88
2022/12/29 06:42:01;;;;;;;3.10;1.57;;;14.30;58.70;;;;;;5070031;28;20442;-88
2022/12/29 06:45:01;;;;;;;3.30;1.40;;;14.30;58.20;;;;;;5074013;28;20493;-88
2022/12/29 06:47:28;;;;;;;5.43;1.83;;;14.30;58.50;;;;;;5079951;28;20550;-87
2022/12/29 06:49:56;;;;;;;2.70;1.77;;;14.50;58.20;;;;;;5064634;28;20442;-90
2022/12/29 06:52:23;;;;;;;1.30;1.10;;;14.50;57.60;;;;;;5074388;28;20461;-87
2022/12/29 06:54:51;;;;;;;1.60;1.50;;;14.60;57.60;;;;;;5068966;27;20443;-88
2022/12/29 06:57:18;;;;;;;2.33;1.47;;;14.60;57.20;;;;;;5052549;28;20466;-86
2022/12/29 06:59:45;;;;;;;1.60;1.50;;;14.60;57.60;;;;;;5066435;28;20851;-89
2022/12/29 07:02:14;;;;;;;2.50;1.50;;;14.60;58.40;;;;;;5087903;28;20553;-89
2022/12/29 07:04:41;;;;;;;3.43;1.93;;;14.50;58.00;;;;;;5085777;28;20606;-89
2022/12/29 07:07:09;;;;;;;3.30;1.50;;;14.50;58.20;;;;;;5071577;28;20469;-88
2022/12/29 07:09:36;;;;;;;2.40;1.60;;;14.60;58.20;;;;;;5067935;28;20434;-87
2022/12/29 07:12:03;;;;;;;6.57;3.40;;;14.70;58.10;;;;;;5070549;28;20782;-88
2022/12/29 07:14:30;;;;;;;4.03;2.20;;;14.40;58.90;;;;;;5068508;28;20443;-88
2022/12/29 07:16:57;;;;;;;7.37;2.40;;;14.40;59.00;;;;;;5069483;28;20553;-89
2022/12/29 07:19:24;;;;;;;1.83;1.70;;;14.30;59.00;;;;;;5086449;28;20983;-88
2022/12/29 07:21:51;;;;;;;2.70;1.57;;;14.40;58.80;;;;;;5104454;27;20824;-87
2022/12/29 07:24:19;;;;;;;2.53;1.80;;;14.40;59.60;;;;;;5055126;28;20451;-88
2022/12/29 07:26:46;;;;;;;1.80;1.70;;;14.50;58.90;;;;;;5083197;27;20890;-88
2022/12/29 07:29:14;;;;;;;7.23;1.90;;;14.50;58.80;;;;;;5045052;28;20528;-88
2022/12/29 07:31:41;;;;;;;2.87;2.10;;;14.80;58.40;;;;;;5087787;27;20439;-87
2022/12/29 07:34:09;;;;;;;2.00;1.77;;;14.70;58.30;;;;;;5088846;28;20591;-89
2022/12/29 07:36:36;;;;;;;2.03;1.70;;;14.90;58.00;;;;;;5078482;28;20469;-87
2022/12/29 07:39:04;;;;;;;2.13;1.60;;;14.90;57.80;;;;;;5073033;28;20467;-88
2022/12/29 07:41:32;;;;;;;3.77;2.10;;;14.50;58.20;;;;;;5072240;28;20443;-87
2022/12/29 07:44:02;;;;;;;2.50;2.00;;;14.40;58.40;;;;;;5047171;28;20467;-89
2022/12/29 07:46:37;;;;;;;12.90;8.97;;;14.50;58.40;;;;;;5052089;28;20469;-88
2022/12/29 07:49:04;;;;;;;8.33;7.47;;;14.30;58.60;;;;;;5067250;27;20488;-89
2022/12/29 07:51:32;;;;;;;11.17;8.00;;;14.40;58.60;;;;;;5044312;28;20447;-88
2022/12/29 07:54:00;;;;;;;2.20;2.00;;;14.40;58.40;;;;;;5069670;28;20458;-89
2022/12/29 07:56:27;;;;;;;2.90;2.23;;;14.50;58.00;;;;;;5073196;28;20549;-87
2022/12/29 07:58:56;;;;;;;3.10;2.80;;;14.30;58.40;;;;;;5071419;28;20477;-87
2022/12/29 08:01:23;;;;;;;8.20;7.10;;;14.40;58.70;;;;;;5072914;28;21090;-88
2022/12/29 08:03:51;;;;;;;3.60;2.53;;;14.40;58.50;;;;;;5054145;27;20462;-88
2022/12/29 08:06:18;;;;;;;6.63;5.43;;;14.60;57.50;;;;;;5062892;28;20489;-89
2022/12/29 08:08:45;;;;;;;3.07;1.80;;;14.80;57.60;;;;;;5071665;28;20438;-87
2022/12/29 08:11:12;;;;;;;7.60;3.33;;;14.80;56.50;;;;;;5053330;28;20480;-89
2022/12/29 08:13:39;;;;;;;25.07;9.93;;;14.80;57.10;;;;;;5054275;27;20551;-89
2022/12/29 08:16:07;;;;;;;10.10;5.90;;;14.80;57.20;;;;;;5056676;27;20459;-88
2022/12/29 08:18:34;;;;;;;16.77;6.50;;;14.80;56.80;;;;;;5085588;28;20439;-89
2022/12/29 08:21:03;;;;;;;14.17;7.83;;;14.90;57.30;;;;;;5106789;27;20474;-88
2022/12/29 08:23:30;;;;;;;7.40;3.60;;;14.90;56.40;;;;;;5086025;28;20446;-89
2022/12/29 08:26:00;;;;;;;3.07;2.17;;;14.90;56.90;;;;;;5090629;28;20473;-89
2022/12/29 08:28:28;;;;;;;11.70;4.70;;;14.90;56.50;;;;;;5108526;27;20939;-87
2022/12/29 08:30:58;;;;;;;15.97;7.93;;;14.80;57.00;;;;;;5078104;28;20492;-90
2022/12/29 08:33:27;;;;;;;3.97;3.30;;;14.90;56.60;;;;;;5088997;28;20467;-89
2022/12/29 08:35:59;;;;;;;3.63;2.07;;;15.10;55.90;;;;;;5091900;27;20463;-88
2022/12/29 08:38:26;;;;;;;7.57;4.80;;;15.10;55.30;;;;;;5070600;28;20451;-87
2022/12/29 08:40:52;;;;;;;2.20;2.00;;;15.10;55.70;;;;;;5069972;27;20979;-88
2022/12/29 08:43:19;;;;;;;5.00;2.67;;;14.90;56.10;;;;;;5070231;28;20951;-88
2022/12/29 08:45:46;;;;;;;2.57;1.70;;;15.00;55.80;;;;;;5054242;27;20863;-91
2022/12/29 08:48:16;;;;;;;1.93;1.73;;;14.90;55.40;;;;;;5053314;28;20827;-88
2022/12/29 08:50:45;;;;;;;3.77;3.00;;;15.00;55.50;;;;;;5067515;27;20502;-90
2022/12/29 08:53:13;;;;;;;4.10;3.00;;;15.10;55.40;;;;;;5055749;28;20431;-87
2022/12/29 08:55:40;;;;;;;10.33;3.40;;;15.30;55.00;;;;;;5065407;28;20471;-87
2022/12/29 08:58:07;;;;;;;2.53;2.10;;;15.20;54.50;;;;;;5072363;28;20917;-88
2022/12/29 09:00:37;;;;;;;4.13;2.20;;;15.30;55.00;;;;;;5057930;28;20483;-88
2022/12/29 09:03:04;;;;;;;2.30;2.07;;;15.20;54.50;;;;;;5079138;28;20537;-88
2022/12/29 09:05:31;;;;;;;2.57;2.20;;;15.40;54.50;;;;;;5054667;28;21365;-88
2022/12/29 09:07:59;;;;;;;4.53;2.37;;;15.40;54.30;;;;;;5066882;28;20459;-88
2022/12/29 09:10:26;;;;;;;3.73;1.67;;;15.40;53.20;;;;;;5079603;28;20510;-88
2022/12/29 09:12:53;;;;;;;2.80;1.70;;;15.30;53.10;;;;;;5050501;28;20956;-87
2022/12/29 09:15:20;;;;;;;6.70;2.20;;;15.30;53.70;;;;;;5054837;28;20447;-87
2022/12/29 09:17:47;;;;;;;4.80;1.87;;;15.50;53.40;;;;;;5067589;28;20538;-88
2022/12/29 09:20:15;;;;;;;1.77;1.67;;;15.70;53.40;;;;;;5052372;28;20502;-89
2022/12/29 09:22:42;;;;;;;3.00;2.20;;;15.60;51.90;;;;;;5050598;28;20478;-86
2022/12/29 09:25:11;;;;;;;2.23;2.03;;;15.60;53.10;;;;;;5063004;28;20439;-88
2022/12/29 09:27:39;;;;;;;3.80;1.93;;;15.50;53.60;;;;;;5063412;28;22044;-87
2022/12/29 09:30:08;;;;;;;2.80;2.07;;;15.80;53.20;;;;;;5051506;28;20447;-87
2022/12/29 09:32:35;;;;;;;2.30;1.90;;;15.80;52.70;;;;;;5062532;28;21414;-86
2022/12/29 09:35:03;;;;;;;3.00;1.73;;;15.90;52.90;;;;;;5074284;28;20525;-88
2022/12/29 09:37:30;;;;;;;1.50;1.40;;;15.80;53.60;;;;;;5070978;28;20474;-87
2022/12/29 09:39:57;;;;;;;1.80;1.60;;;15.70;52.80;;;;;;5069191;27;20554;-87
2022/12/29 09:42:30;;;;;;;2.30;1.77;;;15.60;53.70;;;;;;5055186;28;20444;-85
2022/12/29 09:45:07;;;;;;;3.30;2.00;;;15.50;54.10;;;;;;5063547;28;20979;-87
2022/12/29 09:47:35;;;;;;;3.03;2.00;;;15.30;54.30;;;;;;5106487;28;21329;-88
2022/12/29 09:50:06;;;;;;;3.37;1.60;;;15.20;54.40;;;;;;5080253;27;20448;-89
2022/12/29 09:52:37;;;;;;;17.60;10.70;;;15.30;55.00;;;;;;5053753;28;20529;-85
2022/12/29 09:55:10;;;;;;;5.70;5.10;;;15.30;54.30;;;;;;5081353;27;20811;-87
2022/12/29 09:57:43;;;;;;;2.47;2.27;;;15.50;54.00;;;;;;5070531;28;20487;-87
2022/12/29 10:00:15;;;;;;;3.60;1.93;;;15.50;53.00;;;;;;5083827;28;20535;-88
2022/12/29 10:02:45;;;;;;;2.43;1.53;;;15.50;53.80;;;;;;5071120;28;20462;-87
2022/12/29 10:05:27;;;;;;;3.53;2.20;;;15.60;54.00;;;;;;5087666;28;21149;-88
2022/12/29 10:08:09;;;;;;;3.33;1.60;;;15.70;53.60;;;;;;5056630;27;20444;-86
2022/12/29 10:10:39;;;;;;;2.60;2.40;;;15.50;53.90;;;;;;5085689;28;20473;-87
2022/12/29 10:13:27;;;;;;;2.20;2.00;;;15.80;54.10;;;;;;5087395;28;20533;-87
2022/12/29 10:16:03;;;;;;;7.87;2.50;;;15.70;54.80;;;;;;5074067;27;20557;-87
2022/12/29 10:18:53;;;;;;;5.30;2.27;;;15.40;54.90;;;;;;5073047;28;20442;-88
2022/12/29 10:21:32;;;;;;;3.63;2.87;;;15.50;54.10;;;;;;5016774;28;20470;-87
2022/12/29 10:24:02;;;;;;;7.63;5.00;;;15.60;54.40;;;;;;5057259;27;20462;-87
2022/12/29 10:26:33;;;;;;;1.77;1.67;;;15.80;54.90;;;;;;5089229;28;20837;-88
2022/12/29 10:29:05;;;;;;;4.13;2.33;;;15.80;53.60;;;;;;5073073;27;20445;-88
2022/12/29 10:31:38;;;;;;;2.37;2.17;;;16.00;54.30;;;;;;5054956;28;20439;-88
2022/12/29 10:34:19;;;;;;;3.33;2.60;;;16.00;53.30;;;;;;5056924;28;20489;-87
2022/12/29 10:36:50;;;;;;;2.30;1.83;;;15.90;53.70;;;;;;5067689;27;20459;-87
2022/12/29 10:39:23;;;;;;;2.67;1.57;;;16.10;54.40;;;;;;5071583;28;20524;-88
2022/12/29 10:41:56;;;;;;;2.10;1.90;;;16.00;54.30;;;;;;5060182;28;20960;-88
2022/12/29 10:44:28;;;;;;;9.10;6.87;;;15.90;55.60;;;;;;5072979;28;20807;-87
2022/12/29 10:47:00;;;;;;;1.60;1.50;;;15.70;55.60;;;;;;5048822;28;20463;-86
2022/12/29 10:49:29;;;;;;;8.70;2.90;;;15.70;56.10;;;;;;5054308;28;20432;-88
2022/12/29 10:51:59;;;;;;;3.33;1.90;;;15.80;55.70;;;;;;5087398;28;20440;-88
2022/12/29 10:54:33;;;;;;;3.20;2.30;;;15.80;55.60;;;;;;5076649;28;20451;-88
2022/12/29 10:57:02;;;;;;;2.43;2.00;;;15.60;55.50;;;;;;5048875;28;21003;-87
2022/12/29 10:59:35;;;;;;;2.37;1.77;;;15.30;56.60;;;;;;5090680;28;20522;-86
2022/12/29 11:02:24;;;;;;;2.90;1.43;;;15.40;57.00;;;;;;5074528;28;20469;-87
2022/12/29 11:05:02;;;;;;;3.37;2.20;;;15.30;57.00;;;;;;5089158;28;21083;-87
2022/12/29 11:07:30;;;;;;;1.53;1.43;;;15.30;56.70;;;;;;5057057;28;20469;-86
2022/12/29 11:10:17;;;;;;;3.40;1.80;;;15.50;56.40;;;;;;5070884;28;20435;-88
2022/12/29 11:12:57;;;;;;;2.53;2.03;;;15.50;56.10;;;;;;5052606;27;20435;-87
2022/12/29 11:15:25;;;;;;;2.10;2.00;;;15.40;56.30;;;;;;5054895;28;20462;-87
2022/12/29 11:17:57;;;;;;;3.17;1.97;;;15.50;56.80;;;;;;5074404;28;20476;-87
2022/12/29 11:20:37;;;;;;;2.63;1.60;;;15.30;56.60;;;;;;5074411;28;20466;-87
2022/12/29 11:23:24;;;;;;;3.53;2.60;;;15.20;57.20;;;;;;5080838;27;20550;-88
2022/12/29 11:26:07;;;;;;;8.03;4.47;;;15.10;57.40;;;;;;5064765;28;20470;-88
2022/12/29 11:28:34;;;;;;;3.20;1.90;;;15.00;57.60;;;;;;5071697;28;20451;-88
2022/12/29 11:31:04;;;;;;;3.50;2.73;;;15.20;57.40;;;;;;5084616;27;20435;-86
2022/12/29 11:33:31;;;;;;;5.73;2.13;;;15.10;57.30;;;;;;5053183;28;20439;-87
2022/12/29 11:36:02;;;;;;;6.40;2.80;;;15.30;57.00;;;;;;5057575;27;20467;-87
2022/12/29 11:38:36;;;;;;;2.33;2.10;;;15.10;57.20;;;;;;5058247;28;21063;-88
2022/12/29 11:41:04;;;;;;;6.53;3.27;;;15.10;57.20;;;;;;5089328;28;22003;-88
2022/12/29 11:43:34;;;;;;;3.20;2.90;;;15.20;57.30;;;;;;5050753;28;20442;-88
2022/12/29 11:46:04;;;;;;;5.13;3.07;;;15.40;56.90;;;;;;5068536;27;20909;-88
2022/12/29 11:48:39;;;;;;;3.33;2.47;;;15.20;56.80;;;;;;5067464;28;21099;-88
2022/12/29 11:51:07;;;;;;;7.00;3.30;;;15.50;56.70;;;;;;5089926;28;21194;-88
2022/12/29 11:53:40;;;;;;;8.47;3.27;;;15.60;56.20;;;;;;5052587;28;20483;-88
2022/12/29 11:56:11;;;;;;;4.47;2.60;;;15.80;56.00;;;;;;5073254;27;20475;-87
2022/12/29 11:58:39;;;;;;;6.40;3.83;;;15.80;55.70;;;;;;5066811;28;20451;-88
2022/12/29 12:01:14;;;;;;;4.40;2.93;;;16.00;55.20;;;;;;5072587;27;20473;-88
2022/12/29 12:03:47;;;;;;;2.43;2.23;;;16.10;54.80;;;;;;5070780;28;20475;-88
2022/12/29 12:06:20;;;;;;;3.17;2.83;;;16.10;55.00;;;;;;5053760;28;20486;-89
2022/12/29 12:08:54;;;;;;;2.67;2.47;;;16.20;54.90;;;;;;5061650;27;20488;-87
2022/12/29 12:11:25;;;;;;;3.67;3.10;;;16.20;54.50;;;;;;5056878;28;20496;-88
2022/12/29 12:13:59;;;;;;;6.00;4.60;;;16.10;54.50;;;;;;5070520;28;20709;-88
2022/12/29 12:16:38;;;;;;;5.83;4.57;;;16.00;55.40;;;;;;5103337;28;20473;-88
2022/12/29 12:19:14;;;;;;;5.60;4.30;;;16.10;54.80;;;;;;5068989;28;20453;-88
2022/12/29 12:21:44;;;;;;;5.77;3.63;;;16.20;54.50;;;;;;5060487;28;20563;-87
2022/12/29 12:24:34;;;;;;;3.60;2.53;;;16.00;54.40;;;;;;5070301;28;20525;-88
2022/12/29 12:27:08;;;;;;;3.97;3.57;;;15.80;55.30;;;;;;5087681;28;20463;-88
2022/12/29 12:29:41;;;;;;;5.73;4.77;;;15.80;55.30;;;;;;5051606;28;20500;-88
2022/12/29 12:32:18;;;;;;;3.10;1.80;;;16.00;55.80;;;;;;5105761;28;20781;-89
2022/12/29 12:34:46;;;;;;;2.87;2.53;;;15.90;54.70;;;;;;5071559;28;20545;-87
2022/12/29 12:37:53;;;;;;;3.83;3.50;;;15.50;55.90;;;;;;5062188;28;20450;-88
2022/12/29 12:40:36;;;;;;;1.97;1.83;;;15.40;56.30;;;;;;5076975;28;21192;-88
2022/12/29 12:43:25;;;;;;;1.70;1.60;;;15.30;56.10;;;;;;5050844;27;20443;-89
2022/12/29 12:46:09;;;;;;;1.60;1.50;;;15.20;56.40;;;;;;5080800;27;21008;-88
2022/12/29 12:49:02;;;;;;;1.80;1.53;;;15.40;55.30;;;;;;5049863;28;20540;-88
2022/12/29 12:51:37;;;;;;;2.37;1.50;;;15.50;55.40;;;;;;5100835;28;20471;-88
2022/12/29 12:54:21;;;;;;;2.20;1.87;;;15.60;55.10;;;;;;5044960;28;20445;-89
2022/12/29 12:56:56;;;;;;;2.90;1.70;;;15.70;55.00;;;;;;5066344;28;20824;-88
2022/12/29 12:59:38;;;;;;;2.30;1.93;;;15.90;55.00;;;;;;5047930;28;20824;-87
2022/12/29 13:02:18;;;;;;;3.43;1.60;;;16.20;55.30;;;;;;5069336;28;20760;-89
2022/12/29 13:05:10;;;;;;;4.60;2.03;;;16.20;53.90;;;;;;5067075;28;20453;-88
2022/12/29 13:07:47;;;;;;;3.53;1.60;;;16.40;54.70;;;;;;5066452;28;20475;-88
2022/12/29 13:10:31;;;;;;;4.27;1.57;;;16.30;53.50;;;;;;5066843;28;20856;-88
2022/12/29 13:13:14;;;;;;;3.17;2.20;;;16.30;53.50;;;;;;5082220;28;20524;-88
2022/12/29 13:15:51;;;;;;;5.83;3.13;;;16.40;54.00;;;;;;5076752;28;20497;-88
2022/12/29 13:18:27;;;;;;;4.80;2.73;;;16.40;55.00;;;;;;5073095;28;21173;-88
2022/12/29 13:21:03;;;;;;;5.37;2.83;;;16.30;56.00;;;;;;5050659;28;20474;-88
2022/12/29 13:23:38;;;;;;;3.90;1.90;;;16.10;56.30;;;;;;5059606;28;20987;-89
2022/12/29 13:26:14;;;;;;;4.67;2.87;;;15.90;56.30;;;;;;5068000;28;20466;-87
2022/12/29 13:28:50;;;;;;;4.17;2.27;;;15.70;57.60;;;;;;5065581;28;20464;-89
2022/12/29 13:31:25;;;;;;;4.23;1.60;;;15.50;57.90;;;;;;5067684;28;20900;-89
2022/12/29 13:33:59;;;;;;;7.20;3.90;;;15.40;58.10;;;;;;5101944;28;20818;-88
2022/12/29 13:36:33;;;;;;;10.80;5.23;;;15.40;57.90;;;;;;5064126;28;20471;-87
2022/12/29 13:39:05;;;;;;;4.63;2.50;;;15.60;57.70;;;;;;5060590;28;20461;-87
2022/12/29 13:41:35;;;;;;;22.60;13.07;;;15.80;57.10;;;;;;5066559;28;21035;-89
2022/12/29 13:44:05;;;;;;;24.43;11.27;;;15.90;56.70;;;;;;5061537;28;20451;-88
2022/12/29 13:46:37;;;;;;;2.40;1.87;;;15.90;56.60;;;;;;5072662;28;20505;-87